Terminal Aerodrome Forecast
Issued by NWS

Current Version | Previous Version | Text Only | Print | Product List | Glossary On
Versions: 1 2 3 4 5 6 7 8 9 10 11 12 13 14 15 16 17 18 19 20 21
750
FTUS44 KOUN 281727
TAFLAW
TAF
KLAW 281727Z 2818/2918 10005KT P6SM VCTS BKN035CB BKN045
     FM290100 12005KT P6SM SCT050 SCT120 BKN250
     FM290600 12005KT P6SM FEW120 SCT250=

USA.gov is the U.S. government's official web portal to all federal, state and local government web resources and services.